Time;durP1;ratioP1;P1;durP2;ratioP2;P2;SDS_P1;SDS_P2;PMS_P1;PMS_P2;Temp;Humidity;BMP_temperature;BMP_pressure;BME280_temperature;BME280_humidity;BME280_pressure;Samples;Min_cycle;Max_cycle;Signal;HPM_P1;HPM_P2
2021/06/09 00:00:49;;;;;;;7.97;7.25;;;;;;;;;;5048888;28;20275;-44
2021/06/09 00:03:15;;;;;;;7.65;6.95;;;;;;;;;;5040688;28;20175;-44
2021/06/09 00:05:41;;;;;;;10.65;7.47;;;;;;;;;;5047273;28;20206;-44
2021/06/09 00:08:07;;;;;;;7.57;6.90;;;;;;;;;;5054601;28;20224;-44
2021/06/09 00:10:33;;;;;;;8.50;7.70;;;;;;;;;;5053553;28;20179;-44
2021/06/09 00:13:02;;;;;;;8.65;7.85;;;;;;;;;;5054655;28;20198;-44
2021/06/09 00:15:29;;;;;;;7.53;6.93;;;;;;;;;;5054598;28;20254;-44
2021/06/09 00:17:55;;;;;;;7.53;6.82;;;;;;;;;;5052019;28;20248;-44
2021/06/09 00:20:22;;;;;;;8.02;7.22;;;;;;;;;;5054235;28;20203;-45
2021/06/09 00:22:48;;;;;;;7.40;6.70;;;;;;;;;;5038830;28;20195;-45
2021/06/09 00:25:16;;;;;;;8.23;7.47;;;;;;;;;;5042228;28;20202;-45
2021/06/09 00:27:43;;;;;;;7.50;6.75;;;;;;;;;;5053469;28;20682;-45
2021/06/09 00:30:09;;;;;;;7.90;7.13;;;;;;;;;;5053839;28;20229;-45
2021/06/09 00:32:35;;;;;;;7.80;7.10;;;;;;;;;;5053461;28;20274;-45
2021/06/09 00:35:01;;;;;;;7.65;6.95;;;;;;;;;;5048155;28;20662;-45
2021/06/09 00:37:27;;;;;;;8.65;7.85;;;;;;;;;;5049536;28;20164;-44
2021/06/09 00:39:53;;;;;;;7.53;6.93;;;;;;;;;;5034451;28;20465;-44
2021/06/09 00:42:20;;;;;;;8.18;7.47;;;;;;;;;;5048527;28;20214;-44
2021/06/09 00:44:47;;;;;;;7.70;7.07;;;;;;;;;;5058379;28;20182;-44
2021/06/09 00:47:12;;;;;;;8.68;7.78;;;;;;;;;;5057063;28;20199;-44
2021/06/09 00:49:39;;;;;;;8.00;7.30;;;;;;;;;;5058132;28;20171;-44
2021/06/09 00:52:05;;;;;;;7.70;7.00;;;;;;;;;;5056324;28;20205;-44
2021/06/09 00:54:31;;;;;;;8.10;7.40;;;;;;;;;;5058033;28;20174;-44
2021/06/09 00:56:58;;;;;;;7.45;6.85;;;;;;;;;;5058009;28;20473;-44
2021/06/09 00:59:24;;;;;;;7.45;6.85;;;;;;;;;;5057856;28;20207;-44
2021/06/09 01:01:50;;;;;;;7.43;6.63;;;;;;;;;;5056739;28;20206;-44
2021/06/09 01:04:17;;;;;;;7.13;6.45;;;;;;;;;;5057656;28;20262;-44
2021/06/09 01:06:43;;;;;;;7.20;6.60;;;;;;;;;;5057562;28;20218;-44
2021/06/09 01:09:09;;;;;;;8.18;7.05;;;;;;;;;;5055513;28;20499;-44
2021/06/09 01:11:35;;;;;;;7.28;6.57;;;;;;;;;;5042309;28;20203;-44
2021/06/09 01:14:01;;;;;;;8.05;6.88;;;;;;;;;;5056718;28;20207;-44
2021/06/09 01:16:27;;;;;;;7.15;6.55;;;;;;;;;;5056011;28;20576;-44
2021/06/09 01:18:54;;;;;;;7.75;6.70;;;;;;;;;;5057537;28;20183;-44
2021/06/09 01:21:27;;;;;;;7.40;6.80;;;;;;;;;;5056716;28;20278;-44
2021/06/09 01:23:53;;;;;;;8.38;7.68;;;;;;;;;;5040949;28;20255;-44
2021/06/09 01:26:20;;;;;;;7.72;7.03;;;;;;;;;;5040856;28;20563;-44
2021/06/09 01:28:46;;;;;;;8.20;7.45;;;;;;;;;;5051297;28;20233;-44
2021/06/09 01:31:13;;;;;;;7.07;6.40;;;;;;;;;;5052987;28;20266;-44
2021/06/09 01:33:39;;;;;;;7.80;7.05;;;;;;;;;;5057207;28;20265;-44
2021/06/09 01:36:06;;;;;;;8.27;7.47;;;;;;;;;;5056838;28;20175;-44
2021/06/09 01:38:32;;;;;;;7.22;6.53;;;;;;;;;;5057351;28;20175;-44
2021/06/09 01:40:58;;;;;;;7.72;7.13;;;;;;;;;;5056510;28;20181;-44
2021/06/09 01:43:24;;;;;;;8.52;7.72;;;;;;;;;;5043120;28;20175;-44
2021/06/09 01:45:51;;;;;;;7.78;7.07;;;;;;;;;;5057204;28;20167;-44
2021/06/09 01:48:17;;;;;;;7.57;6.97;;;;;;;;;;5056978;28;20270;-44
2021/06/09 01:50:43;;;;;;;7.82;7.13;;;;;;;;;;5055832;28;20233;-44
2021/06/09 01:53:09;;;;;;;8.02;7.22;;;;;;;;;;5055491;28;20238;-44
2021/06/09 01:55:36;;;;;;;7.88;7.18;;;;;;;;;;5057071;28;20261;-44
2021/06/09 01:58:03;;;;;;;8.20;7.50;;;;;;;;;;5048751;28;20761;-44
2021/06/09 02:00:49;;;;;;;8.68;7.97;;;;;;;;;;5038704;28;20182;-44
2021/06/09 02:03:16;;;;;;;9.60;8.55;;;;;;;;;;5054240;28;20179;-44
2021/06/09 02:05:43;;;;;;;8.88;8.07;;;;;;;;;;5055206;28;20267;-44
2021/06/09 02:08:10;;;;;;;9.18;8.27;;;;;;;;;;5046526;28;20182;-44
2021/06/09 02:10:37;;;;;;;7.75;7.03;;;;;;;;;;5041178;28;20454;-44
2021/06/09 02:13:08;;;;;;;7.72;7.00;;;;;;;;;;5045389;28;20200;-44
2021/06/09 02:15:34;;;;;;;7.28;6.78;;;;;;;;;;5036401;28;20176;-44
2021/06/09 02:18:33;;;;;;;7.88;7.18;;;;;;;;;;5049845;28;20187;-44
2021/06/09 02:20:54;;;;;;;8.50;7.70;;;;;;;;;;5052368;28;20183;-44
2021/06/09 02:23:22;;;;;;;7.68;6.97;;;;;;;;;;5055583;28;20189;-44
2021/06/09 02:25:49;;;;;;;7.68;6.97;;;;;;;;;;5056165;28;20183;-44
2021/06/09 02:28:16;;;;;;;7.43;6.82;;;;;;;;;;5043618;28;20241;-44
2021/06/09 02:30:42;;;;;;;7.65;7.05;;;;;;;;;;5055882;28;20183;-44
2021/06/09 02:33:08;;;;;;;7.45;6.78;;;;;;;;;;5056305;28;20203;-44
2021/06/09 02:35:36;;;;;;;7.80;7.00;;;;;;;;;;5055655;28;20180;-44
2021/06/09 02:38:02;;;;;;;7.85;7.15;;;;;;;;;;5055914;28;20194;-44
2021/06/09 02:40:28;;;;;;;8.15;7.43;;;;;;;;;;5047921;28;20266;-44
2021/06/09 02:42:54;;;;;;;7.57;6.93;;;;;;;;;;5054848;28;20325;-44
2021/06/09 02:45:21;;;;;;;7.90;7.20;;;;;;;;;;5055887;28;20191;-44
2021/06/09 02:47:51;;;;;;;9.68;6.95;;;;;;;;;;5056135;28;20167;-44
2021/06/09 02:50:19;;;;;;;7.75;7.05;;;;;;;;;;5055106;28;20498;-44
2021/06/09 02:52:48;;;;;;;8.02;7.32;;;;;;;;;;5048072;28;20199;-44
2021/06/09 02:55:26;;;;;;;8.20;7.40;;;;;;;;;;5035234;28;20172;-44
2021/06/09 02:58:03;;;;;;;7.57;6.95;;;;;;;;;;5051998;28;20544;-44
2021/06/09 03:00:34;;;;;;;7.28;6.65;;;;;;;;;;5054829;28;20797;-44
2021/06/09 03:03:09;;;;;;;7.80;7.10;;;;;;;;;;5055213;28;20179;-44
2021/06/09 03:05:40;;;;;;;7.47;6.78;;;;;;;;;;5054043;28;20212;-44
2021/06/09 03:08:09;;;;;;;7.45;6.85;;;;;;;;;;5045856;28;20180;-44
2021/06/09 03:10:47;;;;;;;9.02;6.90;;;;;;;;;;5035805;28;20270;-44
2021/06/09 03:13:25;;;;;;;7.35;6.75;;;;;;;;;;5054043;28;20264;-44
2021/06/09 03:16:20;;;;;;;7.30;6.70;;;;;;;;;;5055189;28;20186;-44
2021/06/09 03:18:47;;;;;;;7.88;7.28;;;;;;;;;;5024436;28;20202;-44
2021/06/09 03:21:16;;;;;;;7.03;6.50;;;;;;;;;;5045234;28;20171;-44
2021/06/09 03:23:45;;;;;;;7.43;6.72;;;;;;;;;;5055148;28;20240;-44
2021/06/09 03:26:26;;;;;;;7.88;7.10;;;;;;;;;;5054794;28;20187;-44
2021/06/09 03:28:59;;;;;;;7.70;7.00;;;;;;;;;;5055008;28;20270;-44
2021/06/09 03:31:28;;;;;;;7.68;6.90;;;;;;;;;;5054343;28;20256;-44
2021/06/09 03:33:54;;;;;;;8.07;6.97;;;;;;;;;;5055275;28;20582;-44
2021/06/09 03:36:23;;;;;;;7.78;7.07;;;;;;;;;;5053041;28;20178;-44
2021/06/09 03:38:56;;;;;;;7.63;7.03;;;;;;;;;;5053766;28;20262;-44
2021/06/09 03:41:23;;;;;;;8.35;7.22;;;;;;;;;;5052405;28;20206;-44
2021/06/09 03:43:51;;;;;;;8.27;7.57;;;;;;;;;;5053250;28;20183;-44
2021/06/09 03:46:20;;;;;;;8.15;7.32;;;;;;;;;;5051477;28;20190;-44
2021/06/09 03:48:47;;;;;;;7.63;7.03;;;;;;;;;;5054850;28;20456;-44
2021/06/09 03:51:13;;;;;;;7.35;6.75;;;;;;;;;;5053361;28;20183;-44
2021/06/09 03:53:40;;;;;;;8.43;7.60;;;;;;;;;;5054471;28;20217;-44
2021/06/09 03:56:07;;;;;;;8.98;7.97;;;;;;;;;;5054903;28;20495;-44
2021/06/09 03:58:34;;;;;;;9.10;7.90;;;;;;;;;;5054766;28;20585;-44
2021/06/09 04:01:00;;;;;;;10.10;9.15;;;;;;;;;;5054092;28;20438;-44
2021/06/09 04:03:27;;;;;;;9.75;8.82;;;;;;;;;;5047998;28;20179;-44
2021/06/09 04:05:54;;;;;;;9.75;8.90;;;;;;;;;;5051042;28;20266;-44
2021/06/09 04:08:20;;;;;;;10.98;8.13;;;;;;;;;;5042833;28;20610;-44
2021/06/09 04:10:47;;;;;;;8.93;8.02;;;;;;;;;;5053130;28;20274;-44
2021/06/09 04:13:14;;;;;;;8.68;7.97;;;;;;;;;;5053733;28;20204;-44
2021/06/09 04:15:41;;;;;;;8.52;7.82;;;;;;;;;;5052841;28;20185;-44
2021/06/09 04:18:08;;;;;;;10.50;9.40;;;;;;;;;;5054443;28;20175;-44
2021/06/09 04:20:35;;;;;;;11.00;9.90;;;;;;;;;;5046509;28;20258;-44
2021/06/09 04:23:01;;;;;;;11.10;10.00;;;;;;;;;;5050311;28;20179;-44
2021/06/09 04:25:27;;;;;;;11.70;10.48;;;;;;;;;;5054296;28;20190;-44
2021/06/09 04:27:54;;;;;;;11.23;10.07;;;;;;;;;;5054257;28;20202;-44
2021/06/09 04:30:21;;;;;;;8.60;7.70;;;;;;;;;;5054379;28;20482;-44
2021/06/09 04:32:57;;;;;;;9.10;8.30;;;;;;;;;;5052858;28;20190;-44
2021/06/09 04:35:25;;;;;;;8.27;7.47;;;;;;;;;;5053036;28;20198;-44
2021/06/09 04:37:51;;;;;;;9.07;8.23;;;;;;;;;;5047704;28;20179;-44
2021/06/09 04:40:18;;;;;;;7.88;7.15;;;;;;;;;;5054416;28;20167;-44
2021/06/09 04:42:46;;;;;;;10.10;9.20;;;;;;;;;;5053120;28;20206;-44
2021/06/09 04:45:13;;;;;;;11.38;10.23;;;;;;;;;;5054098;28;20190;-44
2021/06/09 04:47:39;;;;;;;12.45;11.15;;;;;;;;;;5053905;28;20583;-44
2021/06/09 04:50:05;;;;;;;11.30;9.60;;;;;;;;;;5052762;28;20226;-44
2021/06/09 04:52:31;;;;;;;13.27;11.80;;;;;;;;;;5053350;28;20508;-44
2021/06/09 04:54:58;;;;;;;13.52;12.15;;;;;;;;;;5053686;28;20187;-44
2021/06/09 04:57:24;;;;;;;14.35;12.95;;;;;;;;;;5054238;28;20543;-43
2021/06/09 04:59:50;;;;;;;15.98;14.00;;;;;;;;;;5054236;28;20167;-44
2021/06/09 05:02:18;;;;;;;15.10;13.52;;;;;;;;;;5050719;28;20595;-44
2021/06/09 05:04:44;;;;;;;13.23;12.00;;;;;;;;;;5052470;28;20316;-44
2021/06/09 05:07:10;;;;;;;17.63;15.18;;;;;;;;;;5053215;28;20266;-44
2021/06/09 05:09:36;;;;;;;16.33;14.75;;;;;;;;;;5053847;28;20543;-43
2021/06/09 05:12:26;;;;;;;16.00;14.38;;;;;;;;;;5047903;28;20179;-44
2021/06/09 05:14:55;;;;;;;15.43;13.82;;;;;;;;;;5047860;28;20577;-44
2021/06/09 05:17:23;;;;;;;16.17;14.57;;;;;;;;;;5053816;28;20237;-43
2021/06/09 05:19:50;;;;;;;14.45;13.05;;;;;;;;;;5034231;28;20194;-44
2021/06/09 05:22:22;;;;;;;15.65;14.10;;;;;;;;;;5052823;28;20411;-45
2021/06/09 05:24:49;;;;;;;17.52;15.73;;;;;;;;;;5053810;28;20588;-47
2021/06/09 05:27:17;;;;;;;16.25;14.63;;;;;;;;;;5053229;28;20191;-47
2021/06/09 05:29:43;;;;;;;18.00;16.20;;;;;;;;;;5057409;28;20171;-45
2021/06/09 05:32:09;;;;;;;14.68;13.18;;;;;;;;;;5055330;28;20605;-44
2021/06/09 05:34:40;;;;;;;15.30;13.80;;;;;;;;;;5052220;28;20175;-44
2021/06/09 05:37:06;;;;;;;14.55;13.05;;;;;;;;;;5056848;28;20572;-44
2021/06/09 05:39:33;;;;;;;15.88;14.13;;;;;;;;;;5055732;28;20183;-44
2021/06/09 05:42:00;;;;;;;15.60;14.10;;;;;;;;;;5055646;28;20174;-44
2021/06/09 05:44:29;;;;;;;17.77;16.00;;;;;;;;;;5057109;28;20194;-44
2021/06/09 05:46:58;;;;;;;16.90;15.27;;;;;;;;;;5055740;28;20197;-44
2021/06/09 05:49:24;;;;;;;14.75;13.35;;;;;;;;;;5056545;28;20179;-45
2021/06/09 05:51:51;;;;;;;17.50;14.80;;;;;;;;;;5052659;28;20202;-45
2021/06/09 05:54:18;;;;;;;14.32;12.93;;;;;;;;;;5056621;28;20211;-45
2021/06/09 05:56:44;;;;;;;15.90;14.10;;;;;;;;;;5056790;28;21004;-45
2021/06/09 05:59:10;;;;;;;16.42;14.85;;;;;;;;;;5056668;28;20183;-45
2021/06/09 06:01:36;;;;;;;16.05;14.45;;;;;;;;;;5054606;28;20182;-45
2021/06/09 06:04:03;;;;;;;14.15;12.77;;;;;;;;;;5056581;28;20198;-45
2021/06/09 06:06:29;;;;;;;14.18;12.75;;;;;;;;;;5056169;28;20186;-45
2021/06/09 06:08:55;;;;;;;13.65;12.25;;;;;;;;;;5056453;28;20218;-45
2021/06/09 06:11:22;;;;;;;15.80;11.38;;;;;;;;;;5055735;28;20573;-45
2021/06/09 06:13:49;;;;;;;13.23;12.02;;;;;;;;;;5056664;28;20265;-45
2021/06/09 06:16:16;;;;;;;13.15;11.90;;;;;;;;;;5055794;28;20179;-45
2021/06/09 06:18:42;;;;;;;11.98;10.88;;;;;;;;;;5056462;28;20167;-45
2021/06/09 06:21:09;;;;;;;12.68;11.25;;;;;;;;;;5055403;28;20258;-45
2021/06/09 06:23:36;;;;;;;12.23;11.10;;;;;;;;;;5050548;28;20230;-45
2021/06/09 06:26:02;;;;;;;12.98;11.77;;;;;;;;;;5036576;28;20168;-45
2021/06/09 06:28:28;;;;;;;12.32;11.32;;;;;;;;;;5036553;28;20199;-45
2021/06/09 06:30:54;;;;;;;12.07;10.98;;;;;;;;;;5044971;28;20233;-45
2021/06/09 06:33:25;;;;;;;12.77;11.48;;;;;;;;;;5055006;28;20286;-45
2021/06/09 06:35:52;;;;;;;12.57;11.55;;;;;;;;;;5055469;28;20193;-45
2021/06/09 06:38:20;;;;;;;12.50;11.40;;;;;;;;;;5055434;28;20543;-45
2021/06/09 06:40:48;;;;;;;12.32;11.13;;;;;;;;;;5055782;28;20545;-45
2021/06/09 06:43:14;;;;;;;13.00;11.80;;;;;;;;;;5055750;28;20202;-45
2021/06/09 06:45:40;;;;;;;12.73;11.45;;;;;;;;;;5055377;28;20222;-45
2021/06/09 06:48:07;;;;;;;13.07;11.75;;;;;;;;;;5055493;28;20593;-45
2021/06/09 06:50:33;;;;;;;10.80;9.80;;;;;;;;;;5055287;28;20187;-45
2021/06/09 06:53:04;;;;;;;10.75;9.75;;;;;;;;;;5055873;28;20353;-45
2021/06/09 06:55:30;;;;;;;10.77;9.75;;;;;;;;;;5055747;28;20171;-45
2021/06/09 06:57:57;;;;;;;11.43;10.35;;;;;;;;;;5055778;28;20244;-45
2021/06/09 07:00:24;;;;;;;11.27;10.18;;;;;;;;;;5040840;28;20194;-45
2021/06/09 07:02:54;;;;;;;11.32;10.32;;;;;;;;;;5055330;28;20171;-45
2021/06/09 07:05:21;;;;;;;9.95;9.02;;;;;;;;;;5055729;28;20447;-45
2021/06/09 07:07:48;;;;;;;10.25;9.25;;;;;;;;;;5055465;28;20175;-45
2021/06/09 07:10:16;;;;;;;10.40;9.48;;;;;;;;;;5055498;28;20604;-45
2021/06/09 07:12:44;;;;;;;10.25;9.30;;;;;;;;;;5054930;28;20198;-45
2021/06/09 07:15:11;;;;;;;10.45;9.50;;;;;;;;;;5055208;28;20187;-45
2021/06/09 07:17:41;;;;;;;9.38;8.48;;;;;;;;;;5055211;28;20549;-44
2021/06/09 07:20:09;;;;;;;9.52;8.65;;;;;;;;;;5055268;28;20479;-44
2021/06/09 07:22:35;;;;;;;9.15;8.35;;;;;;;;;;5054860;28;20179;-45
2021/06/09 07:25:01;;;;;;;9.05;8.25;;;;;;;;;;5055389;28;20531;-45
2021/06/09 07:27:30;;;;;;;8.88;8.07;;;;;;;;;;5055116;28;20173;-45
2021/06/09 07:29:57;;;;;;;8.18;7.47;;;;;;;;;;5035548;28;20198;-45
2021/06/09 07:32:24;;;;;;;7.57;6.97;;;;;;;;;;5040130;28;20171;-45
2021/06/09 07:34:50;;;;;;;7.93;6.68;;;;;;;;;;5055064;28;20214;-45
2021/06/09 07:37:19;;;;;;;6.93;6.25;;;;;;;;;;5053739;28;20175;-45
2021/06/09 07:39:49;;;;;;;6.50;5.90;;;;;;;;;;5035037;28;20206;-45
2021/06/09 07:42:18;;;;;;;7.45;6.78;;;;;;;;;;5035836;28;20168;-45
2021/06/09 07:44:50;;;;;;;7.30;6.70;;;;;;;;;;5054084;28;20186;-45
2021/06/09 07:47:17;;;;;;;6.60;6.00;;;;;;;;;;5054896;28;20187;-45
2021/06/09 07:49:45;;;;;;;7.60;6.90;;;;;;;;;;5053771;28;20210;-45
2021/06/09 07:52:11;;;;;;;6.72;6.22;;;;;;;;;;5050923;28;20246;-45
2021/06/09 07:54:37;;;;;;;6.40;5.80;;;;;;;;;;5053223;28;20175;-45
2021/06/09 07:57:05;;;;;;;6.80;6.30;;;;;;;;;;5054476;28;20494;-45
2021/06/09 07:59:31;;;;;;;6.65;6.10;;;;;;;;;;5049511;28;20182;-45
2021/06/09 08:01:57;;;;;;;6.57;5.97;;;;;;;;;;5048903;28;20183;-45
2021/06/09 08:04:23;;;;;;;6.70;6.20;;;;;;;;;;5054335;28;20241;-45
2021/06/09 08:06:50;;;;;;;6.90;6.25;;;;;;;;;;5054318;28;20190;-45
2021/06/09 08:09:16;;;;;;;7.03;6.38;;;;;;;;;;5053777;28;20267;-45
2021/06/09 08:11:42;;;;;;;6.45;5.95;;;;;;;;;;5051940;28;20179;-45
2021/06/09 08:14:09;;;;;;;7.05;6.35;;;;;;;;;;5052333;28;20494;-45
2021/06/09 08:16:36;;;;;;;6.88;6.35;;;;;;;;;;5054162;28;20175;-45
2021/06/09 08:19:06;;;;;;;7.00;6.40;;;;;;;;;;5035000;28;20187;-45
2021/06/09 08:21:32;;;;;;;7.20;6.60;;;;;;;;;;5033871;28;20172;-45
2021/06/09 08:23:58;;;;;;;8.15;7.18;;;;;;;;;;5034503;28;20183;-45
2021/06/09 08:26:26;;;;;;;8.35;7.13;;;;;;;;;;5035696;28;20483;-45
2021/06/09 08:28:52;;;;;;;8.23;7.43;;;;;;;;;;5033903;28;20192;-45
2021/06/09 08:31:20;;;;;;;9.25;8.38;;;;;;;;;;5032837;28;20759;-45
2021/06/09 08:33:46;;;;;;;8.70;7.80;;;;;;;;;;5033535;28;20227;-45
2021/06/09 08:36:16;;;;;;;8.70;7.88;;;;;;;;;;5034331;28;20187;-45
2021/06/09 08:38:43;;;;;;;9.05;8.25;;;;;;;;;;5033678;28;20206;-45
2021/06/09 08:41:10;;;;;;;8.98;8.02;;;;;;;;;;5033691;28;20520;-45
2021/06/09 08:43:37;;;;;;;8.65;7.90;;;;;;;;;;5048356;28;20179;-45
2021/06/09 08:46:04;;;;;;;9.85;8.95;;;;;;;;;;5054265;28;20171;-45
2021/06/09 08:48:30;;;;;;;11.25;10.15;;;;;;;;;;5054342;28;20353;-45
2021/06/09 08:50:56;;;;;;;10.85;9.75;;;;;;;;;;5053481;28;20206;-45
2021/06/09 08:53:23;;;;;;;12.25;10.95;;;;;;;;;;5054211;28;20213;-45
2021/06/09 08:55:50;;;;;;;11.77;10.57;;;;;;;;;;5054028;28;20539;-45
2021/06/09 08:58:16;;;;;;;13.57;10.70;;;;;;;;;;5039026;28;20179;-45
2021/06/09 09:00:43;;;;;;;11.55;10.35;;;;;;;;;;5038285;28;20178;-45
2021/06/09 09:03:09;;;;;;;10.25;9.35;;;;;;;;;;5057125;28;20167;-45
2021/06/09 09:05:36;;;;;;;10.40;9.40;;;;;;;;;;5058091;28;20198;-45
2021/06/09 09:08:03;;;;;;;10.98;10.05;;;;;;;;;;5057765;28;20183;-45
2021/06/09 09:10:30;;;;;;;9.93;8.93;;;;;;;;;;5057386;28;20181;-45
2021/06/09 09:12:56;;;;;;;11.43;10.43;;;;;;;;;;5057623;28;20226;-45
2021/06/09 09:15:22;;;;;;;12.50;9.50;;;;;;;;;;5044144;28;20183;-45
2021/06/09 09:17:55;;;;;;;11.82;10.73;;;;;;;;;;5037776;28;20187;-45
2021/06/09 09:20:23;;;;;;;11.45;10.45;;;;;;;;;;5037465;28;20226;-45
2021/06/09 09:22:52;;;;;;;10.27;9.38;;;;;;;;;;5037005;28;20184;-45
2021/06/09 09:25:18;;;;;;;10.25;9.25;;;;;;;;;;5037702;28;20196;-45
2021/06/09 09:28:00;;;;;;;10.55;9.13;;;;;;;;;;5037419;28;20175;-45
2021/06/09 09:30:27;;;;;;;9.25;8.35;;;;;;;;;;5037396;28;20168;-45
2021/06/09 09:33:07;;;;;;;9.13;8.27;;;;;;;;;;5037987;28;20223;-45
2021/06/09 09:35:35;;;;;;;9.00;8.10;;;;;;;;;;5037452;28;20178;-45
2021/06/09 09:38:11;;;;;;;9.15;8.35;;;;;;;;;;5037335;28;20210;-45
2021/06/09 09:40:37;;;;;;;7.63;6.93;;;;;;;;;;5049842;28;20217;-44
2021/06/09 09:43:03;;;;;;;8.32;7.22;;;;;;;;;;5056713;28;20171;-44
2021/06/09 09:45:32;;;;;;;8.05;7.25;;;;;;;;;;5056200;28;20645;-46
2021/06/09 09:48:11;;;;;;;8.43;6.90;;;;;;;;;;5054477;28;20186;-45
2021/06/09 09:50:45;;;;;;;8.43;7.20;;;;;;;;;;5056252;28;20446;-45
2021/06/09 09:53:21;;;;;;;7.60;6.90;;;;;;;;;;5056940;28;20206;-45
2021/06/09 09:55:59;;;;;;;7.82;6.75;;;;;;;;;;5057237;28;20433;-45
2021/06/09 09:58:26;;;;;;;7.15;6.53;;;;;;;;;;5056297;28;20171;-44
2021/06/09 10:00:53;;;;;;;6.78;6.18;;;;;;;;;;5050000;28;20609;-44
2021/06/09 10:03:20;;;;;;;6.18;5.57;;;;;;;;;;5053364;28;20233;-44
2021/06/09 10:05:47;;;;;;;10.13;5.70;;;;;;;;;;5053977;28;20236;-44
2021/06/09 10:08:13;;;;;;;7.65;5.28;;;;;;;;;;5048219;28;20245;-44
2021/06/09 10:10:39;;;;;;;7.50;5.43;;;;;;;;;;5055648;28;20181;-44
2021/06/09 10:13:09;;;;;;;6.50;5.28;;;;;;;;;;5056191;28;20203;-44
2021/06/09 10:15:37;;;;;;;5.35;4.95;;;;;;;;;;5055884;28;20168;-45
2021/06/09 10:18:20;;;;;;;7.00;5.32;;;;;;;;;;5056654;28;20230;-45
2021/06/09 10:20:48;;;;;;;5.35;4.85;;;;;;;;;;5054398;28;20710;-44
2021/06/09 10:23:33;;;;;;;8.20;5.07;;;;;;;;;;5054533;28;20179;-45
2021/06/09 10:26:10;;;;;;;5.53;5.03;;;;;;;;;;5056074;28;20183;-45
2021/06/09 10:28:55;;;;;;;4.63;4.22;;;;;;;;;;5056616;28;20537;-45
2021/06/09 10:31:21;;;;;;;6.05;5.50;;;;;;;;;;5055527;28;20262;-45
2021/06/09 10:33:47;;;;;;;5.75;5.18;;;;;;;;;;5045422;28;20210;-45
2021/06/09 10:36:14;;;;;;;5.72;5.15;;;;;;;;;;5051144;28;20203;-45
2021/06/09 10:38:40;;;;;;;5.43;4.88;;;;;;;;;;5054163;28;20704;-45
2021/06/09 10:41:07;;;;;;;8.30;5.18;;;;;;;;;;5044275;28;20800;-45
2021/06/09 10:43:34;;;;;;;7.25;5.00;;;;;;;;;;5065503;28;20273;-44
2021/06/09 10:46:00;;;;;;;5.15;4.75;;;;;;;;;;5075048;28;20167;-44
2021/06/09 10:48:28;;;;;;;6.72;4.68;;;;;;;;;;5075521;28;20182;-44
2021/06/09 10:50:55;;;;;;;6.55;4.50;;;;;;;;;;5052577;28;20536;-44
2021/06/09 10:53:21;;;;;;;6.50;5.07;;;;;;;;;;5060601;28;20249;-45
2021/06/09 10:55:47;;;;;;;7.20;5.25;;;;;;;;;;5053478;28;20178;-45
2021/06/09 10:58:14;;;;;;;5.05;4.65;;;;;;;;;;5054086;28;20229;-45
2021/06/09 11:00:40;;;;;;;6.03;5.32;;;;;;;;;;5043372;28;20183;-45
2021/06/09 11:03:06;;;;;;;6.50;5.45;;;;;;;;;;5053229;28;20182;-45
2021/06/09 11:05:35;;;;;;;6.50;5.43;;;;;;;;;;5053789;28;20187;-45
2021/06/09 11:08:05;;;;;;;5.78;5.28;;;;;;;;;;5054031;28;20293;-45
2021/06/09 11:10:31;;;;;;;5.55;5.05;;;;;;;;;;5053894;28;20490;-45
2021/06/09 11:12:57;;;;;;;5.80;5.25;;;;;;;;;;5053784;28;20191;-45
2021/06/09 11:15:30;;;;;;;5.72;5.22;;;;;;;;;;5054863;28;20179;-45
2021/06/09 11:17:57;;;;;;;4.82;4.43;;;;;;;;;;5055540;28;20171;-45
2021/06/09 11:20:26;;;;;;;4.97;4.55;;;;;;;;;;5054950;28;20159;-45
2021/06/09 11:22:53;;;;;;;4.78;3.65;;;;;;;;;;5055036;28;20187;-45
2021/06/09 11:25:22;;;;;;;4.07;3.78;;;;;;;;;;5055144;28;20232;-45
2021/06/09 11:27:59;;;;;;;4.10;3.80;;;;;;;;;;5048454;28;20179;-45
2021/06/09 11:30:25;;;;;;;4.28;3.47;;;;;;;;;;5048349;28;20180;-45
2021/06/09 11:32:55;;;;;;;3.67;3.38;;;;;;;;;;5034995;28;20217;-45
2021/06/09 11:35:41;;;;;;;3.70;3.40;;;;;;;;;;5035399;28;20164;-45
2021/06/09 11:38:13;;;;;;;3.88;3.28;;;;;;;;;;5052586;28;20179;-45
2021/06/09 11:40:50;;;;;;;4.18;3.17;;;;;;;;;;5054012;28;20175;-45
2021/06/09 11:43:20;;;;;;;3.67;3.38;;;;;;;;;;5035298;28;20168;-45
2021/06/09 11:45:50;;;;;;;3.80;3.50;;;;;;;;;;5044326;28;20190;-45
2021/06/09 11:48:18;;;;;;;4.43;3.97;;;;;;;;;;5053381;28;20899;-45
2021/06/09 11:50:44;;;;;;;3.72;3.42;;;;;;;;;;5054046;28;20191;-45
2021/06/09 11:53:14;;;;;;;3.88;3.38;;;;;;;;;;5054912;28;20191;-45
2021/06/09 11:55:40;;;;;;;4.10;3.28;;;;;;;;;;5047474;28;20582;-45
2021/06/09 11:58:07;;;;;;;3.63;3.08;;;;;;;;;;5053968;28;20578;-45
2021/06/09 12:00:33;;;;;;;4.32;3.50;;;;;;;;;;5050859;28;20226;-45
2021/06/09 12:03:18;;;;;;;4.07;3.53;;;;;;;;;;5034962;28;20171;-45
2021/06/09 12:05:44;;;;;;;3.67;3.38;;;;;;;;;;5034714;28;20180;-45
2021/06/09 12:08:11;;;;;;;3.47;3.28;;;;;;;;;;5051490;28;20206;-45
2021/06/09 12:10:37;;;;;;;3.40;3.10;;;;;;;;;;5053645;28;20659;-45
2021/06/09 12:13:03;;;;;;;3.88;3.58;;;;;;;;;;5054597;28;20191;-45
2021/06/09 12:15:30;;;;;;;3.75;3.42;;;;;;;;;;5054425;28;20171;-45
2021/06/09 12:17:56;;;;;;;3.20;2.90;;;;;;;;;;5053818;28;20175;-45
2021/06/09 12:20:22;;;;;;;4.72;3.25;;;;;;;;;;5054279;28;20193;-45
2021/06/09 12:22:52;;;;;;;3.05;2.85;;;;;;;;;;5038847;28;20211;-45
2021/06/09 12:25:18;;;;;;;5.13;3.30;;;;;;;;;;5054062;28;20221;-45
2021/06/09 12:27:58;;;;;;;3.55;3.35;;;;;;;;;;5051481;28;20191;-45
2021/06/09 12:30:24;;;;;;;3.67;3.20;;;;;;;;;;5053991;28;20178;-45
2021/06/09 12:32:50;;;;;;;3.47;3.17;;;;;;;;;;5053997;28;20222;-45
2021/06/09 12:35:17;;;;;;;3.40;3.20;;;;;;;;;;5054337;28;20444;-45
2021/06/09 12:37:45;;;;;;;3.85;3.25;;;;;;;;;;5056389;28;20586;-45
2021/06/09 12:40:13;;;;;;;3.30;3.10;;;;;;;;;;5056171;28;20178;-45
2021/06/09 12:42:40;;;;;;;3.92;3.53;;;;;;;;;;5057738;28;20175;-45
2021/06/09 12:45:09;;;;;;;3.75;3.45;;;;;;;;;;5058433;28;20172;-45
2021/06/09 12:47:40;;;;;;;3.63;3.42;;;;;;;;;;5058071;28;20586;-45
2021/06/09 12:50:12;;;;;;;3.58;3.28;;;;;;;;;;5057857;28;20190;-45
2021/06/09 12:52:38;;;;;;;4.13;3.30;;;;;;;;;;5057594;28;20206;-45
2021/06/09 12:55:09;;;;;;;4.00;3.70;;;;;;;;;;5056986;28;20186;-45
2021/06/09 12:57:36;;;;;;;3.30;3.10;;;;;;;;;;5054088;28;20206;-45
2021/06/09 13:00:22;;;;;;;3.83;3.50;;;;;;;;;;5058248;28;20179;-45
2021/06/09 13:02:48;;;;;;;3.95;3.65;;;;;;;;;;5051312;28;20183;-45
2021/06/09 13:05:18;;;;;;;4.85;4.45;;;;;;;;;;5058178;28;20281;-45
2021/06/09 13:07:45;;;;;;;3.90;3.60;;;;;;;;;;5057432;28;20826;-45
2021/06/09 13:10:12;;;;;;;4.10;3.58;;;;;;;;;;5057428;28;20194;-45
2021/06/09 13:12:38;;;;;;;4.10;3.80;;;;;;;;;;5055281;28;20190;-45
2021/06/09 13:15:05;;;;;;;3.88;3.58;;;;;;;;;;5057858;28;20170;-45
2021/06/09 13:17:31;;;;;;;4.00;3.70;;;;;;;;;;5057501;28;20574;-46
2021/06/09 13:20:13;;;;;;;4.15;3.85;;;;;;;;;;5057863;28;20178;-46
2021/06/09 13:22:42;;;;;;;4.53;4.18;;;;;;;;;;5056704;28;20455;-46
2021/06/09 13:25:08;;;;;;;4.97;4.53;;;;;;;;;;5057338;28;20175;-46
2021/06/09 13:27:34;;;;;;;4.47;4.18;;;;;;;;;;5050065;28;20211;-46
2021/06/09 13:30:00;;;;;;;4.80;4.40;;;;;;;;;;5055209;28;20585;-46
2021/06/09 13:32:27;;;;;;;4.60;4.20;;;;;;;;;;5056394;28;20228;-46
2021/06/09 13:34:56;;;;;;;4.38;4.07;;;;;;;;;;5051958;28;20240;-45
2021/06/09 13:37:23;;;;;;;5.25;4.80;;;;;;;;;;5049115;28;20452;-45
2021/06/09 13:39:51;;;;;;;5.72;4.65;;;;;;;;;;5055654;28;20194;-45
2021/06/09 13:42:27;;;;;;;4.70;4.13;;;;;;;;;;5051863;28;20221;-45
2021/06/09 13:44:53;;;;;;;4.72;4.43;;;;;;;;;;5048392;28;20175;-45
2021/06/09 13:47:21;;;;;;;4.75;4.45;;;;;;;;;;5055464;28;20566;-45
2021/06/09 13:49:55;;;;;;;4.55;4.25;;;;;;;;;;5046306;28;20487;-45
2021/06/09 13:52:28;;;;;;;6.00;5.50;;;;;;;;;;5048292;28;20170;-45
2021/06/09 13:54:54;;;;;;;5.13;4.72;;;;;;;;;;5063352;28;20590;-46
2021/06/09 13:57:25;;;;;;;5.22;4.82;;;;;;;;;;5045103;28;20573;-45
2021/06/09 13:59:51;;;;;;;4.85;4.45;;;;;;;;;;5055863;28;20546;-45
2021/06/09 14:02:21;;;;;;;5.10;4.68;;;;;;;;;;5053303;28;20249;-45
2021/06/09 14:04:47;;;;;;;5.25;4.70;;;;;;;;;;5050038;28;20195;-45
2021/06/09 14:07:18;;;;;;;4.90;4.50;;;;;;;;;;5055588;28;20203;-46
2021/06/09 14:09:50;;;;;;;5.45;5.05;;;;;;;;;;5055187;28;20175;-46
2021/06/09 14:12:17;;;;;;;4.90;4.55;;;;;;;;;;5049490;28;20176;-46
2021/06/09 14:14:43;;;;;;;5.38;4.95;;;;;;;;;;5056579;28;20207;-46
2021/06/09 14:17:14;;;;;;;4.95;4.55;;;;;;;;;;5055937;28;20172;-46
2021/06/09 14:19:42;;;;;;;6.25;4.85;;;;;;;;;;5054029;28;20180;-46
2021/06/09 14:22:21;;;;;;;5.25;4.85;;;;;;;;;;5052483;28;20180;-45
2021/06/09 14:24:47;;;;;;;5.60;4.65;;;;;;;;;;5055131;28;20186;-45
2021/06/09 14:27:13;;;;;;;5.32;4.82;;;;;;;;;;5055726;28;20443;-45
2021/06/09 14:29:39;;;;;;;5.43;4.93;;;;;;;;;;5056136;28;20606;-45
2021/06/09 14:32:11;;;;;;;5.60;5.10;;;;;;;;;;5055707;28;20469;-45
2021/06/09 14:34:40;;;;;;;5.88;5.38;;;;;;;;;;5052775;28;20593;-45
2021/06/09 14:37:10;;;;;;;5.45;4.78;;;;;;;;;;5042030;28;20183;-45
2021/06/09 14:39:36;;;;;;;5.43;4.93;;;;;;;;;;5053941;28;20220;-45
2021/06/09 14:42:03;;;;;;;5.70;5.20;;;;;;;;;;5055201;28;20175;-45
2021/06/09 14:44:38;;;;;;;5.82;5.32;;;;;;;;;;5055793;28;20262;-45